createdAt,value
2017-04-17T00:00:33.793Z,0
2017-04-17T00:01:43.989Z,0
2017-04-17T00:02:54.203Z,0
2017-04-17T00:04:04.575Z,0
2017-04-17T00:05:14.652Z,0
2017-04-17T00:06:24.485Z,0
2017-04-17T00:07:34.606Z,0
2017-04-17T00:08:44.603Z,0
2017-04-17T00:09:54.650Z,0
2017-04-17T00:11:04.725Z,0
2017-04-17T00:12:14.261Z,0
2017-04-17T00:13:24.381Z,0
2017-04-17T00:14:34.510Z,0
2017-04-17T00:15:44.884Z,0
2017-04-17T00:16:55.069Z,0
2017-04-17T00:18:05.183Z,0
2017-04-17T00:19:15.253Z,0
2017-04-17T00:20:25.382Z,0
2017-04-17T00:21:35.752Z,0
2017-04-17T00:22:45.188Z,0
2017-04-17T00:23:55.364Z,0
2017-04-17T00:25:05.159Z,0
2017-04-17T00:26:15.299Z,0
2017-04-17T00:27:25.676Z,0
2017-04-17T00:28:35.470Z,0
2017-04-17T00:29:44.859Z,0
2017-04-17T00:30:54.656Z,0
2017-04-17T00:32:04.397Z,0
2017-04-17T00:33:14.896Z,0
2017-04-17T00:34:25.084Z,0
2017-04-17T00:35:34.865Z,0
2017-04-17T00:36:44.625Z,0
2017-04-17T00:37:54.407Z,0
2017-04-17T00:39:04.442Z,0
2017-04-17T00:40:14.507Z,0
2017-04-17T00:41:24.241Z,0
2017-04-17T00:42:34.107Z,0
2017-04-17T00:43:44.238Z,0
2017-04-17T00:44:54.661Z,0
2017-04-17T00:46:04.776Z,0
2017-04-17T00:47:14.856Z,0
2017-04-17T00:48:24.923Z,0
2017-04-17T00:49:34.993Z,0
2017-04-17T00:50:45.395Z,0
2017-04-17T00:51:55.465Z,0
2017-04-17T00:53:05.223Z,0
2017-04-17T00:54:15.364Z,0
2017-04-17T00:55:25.482Z,0
2017-04-17T00:56:35.547Z,0
2017-04-17T00:57:45.217Z,0
2017-04-17T00:58:54.962Z,0
2017-04-17T01:00:04.691Z,0
2017-04-17T01:01:14.798Z,0
2017-04-17T01:02:25.259Z,0
2017-04-17T01:03:35.012Z,0
2017-04-17T01:04:45.121Z,0
2017-04-17T01:05:54.909Z,0
2017-04-17T01:07:04.637Z,0
2017-04-17T01:08:15.104Z,0
2017-04-17T01:09:25.284Z,0
2017-04-17T01:10:35.398Z,0
2017-04-17T01:11:45.583Z,0
2017-04-17T01:12:55.647Z,0
2017-04-17T01:14:06.018Z,0
2017-04-17T01:15:16.138Z,0
2017-04-17T01:16:26.206Z,0
2017-04-17T01:17:36.033Z,0
2017-04-17T01:18:45.834Z,0
2017-04-17T01:19:56.283Z,0
2017-04-17T01:21:06.360Z,0
2017-04-17T01:22:15.766Z,0
2017-04-17T01:23:25.495Z,0
2017-04-17T01:24:35.612Z,0
2017-04-17T01:25:45.781Z,0
2017-04-17T01:26:55.865Z,0
2017-04-17T01:28:05.593Z,0
2017-04-17T01:29:15.354Z,0
2017-04-17T01:30:25.407Z,0
2017-04-17T01:31:35.462Z,0
2017-04-17T01:32:45.587Z,0
2017-04-17T01:33:55.662Z,0
2017-04-17T01:35:05.778Z,0
2017-04-17T01:36:15.847Z,0
2017-04-17T01:37:25.882Z,0
2017-04-17T01:38:35.442Z,0
2017-04-17T01:39:45.310Z,0
2017-04-17T01:40:54.747Z,0
2017-04-17T01:42:04.486Z,0
2017-04-17T01:43:14.549Z,0
2017-04-17T01:44:24.674Z,0
2017-04-17T01:45:34.902Z,0
2017-04-17T01:46:44.883Z,0
2017-04-17T01:47:54.308Z,0
2017-04-17T01:49:04.728Z,0
2017-04-17T01:50:14.447Z,0
2017-04-17T01:51:23.916Z,0
2017-04-17T01:52:34.089Z,0
2017-04-17T01:54:16.274Z,0
2017-04-17T01:55:25.745Z,0
2017-04-17T01:56:35.474Z,0
2017-04-17T01:57:45.583Z,0
2017-04-17T01:58:55.370Z,0
2017-04-17T02:00:05.828Z,0
2017-04-17T02:01:15.736Z,0
2017-04-17T02:02:25.864Z,0
2017-04-17T02:03:36.154Z,0
2017-04-17T02:04:46.118Z,0
2017-04-17T02:05:56.495Z,0
2017-04-17T02:07:06.248Z,0
2017-04-17T02:08:16.433Z,0
2017-04-17T02:09:26.173Z,0
2017-04-17T02:10:35.942Z,0
2017-04-17T02:11:46.501Z,0
2017-04-17T02:12:55.908Z,0
2017-04-17T02:14:05.653Z,0
2017-04-17T02:15:15.719Z,0
2017-04-17T02:16:25.855Z,0
2017-04-17T02:17:35.900Z,0
2017-04-17T02:18:45.638Z,0
2017-04-17T02:19:55.436Z,0
2017-04-17T02:21:05.554Z,0
2017-04-17T02:22:15.353Z,0
2017-04-17T02:23:25.728Z,0
2017-04-17T02:24:35.793Z,0
2017-04-17T02:25:45.546Z,0
2017-04-17T02:26:55.354Z,0
2017-04-17T02:28:05.155Z,0
2017-04-17T02:29:15.537Z,0
2017-04-17T02:30:25.280Z,0
2017-04-17T02:31:35.386Z,0
2017-04-17T02:32:45.117Z,0
2017-04-17T02:33:54.846Z,0
2017-04-17T02:35:04.942Z,0
2017-04-17T02:36:15.062Z,0
2017-04-17T02:37:24.802Z,0
2017-04-17T02:38:34.897Z,0
2017-04-17T02:39:44.631Z,0
2017-04-17T02:40:55.107Z,0
2017-04-17T02:42:04.903Z,0
2017-04-17T02:43:14.643Z,0
2017-04-17T02:44:24.775Z,0
2017-04-17T02:45:35.022Z,0
2017-04-17T02:46:45.449Z,0
2017-04-17T02:47:55.521Z,0
2017-04-17T02:49:05.592Z,0
2017-04-17T02:50:15.740Z,0
2017-04-17T02:51:25.830Z,0
2017-04-17T02:52:36.253Z,0
2017-04-17T02:53:46.365Z,0
2017-04-17T02:54:55.845Z,0
2017-04-17T02:56:05.938Z,0
2017-04-17T02:57:15.738Z,0
2017-04-17T02:58:25.850Z,0
2017-04-17T02:59:36.018Z,0
2017-04-17T03:00:46.216Z,0
2017-04-17T03:01:56.317Z,0
2017-04-17T03:03:06.397Z,0
2017-04-17T03:04:16.765Z,0
2017-04-17T03:05:26.561Z,0
2017-04-17T03:06:36.674Z,0
2017-04-17T03:07:47.247Z,0
2017-04-17T03:08:56.704Z,0
2017-04-17T03:10:06.740Z,0
2017-04-17T03:11:16.495Z,0
2017-04-17T03:12:26.285Z,0
2017-04-17T03:13:36.589Z,0
2017-04-17T03:14:46.655Z,0
2017-04-17T03:15:57.098Z,0
2017-04-17T03:17:06.885Z,0
2017-04-17T03:18:16.949Z,0
2017-04-17T03:19:27.118Z,0
2017-04-17T03:20:37.279Z,0
2017-04-17T03:21:47.000Z,0
2017-04-17T03:22:56.791Z,0
2017-04-17T03:24:06.941Z,0
2017-04-17T03:25:17.032Z,0
2017-04-17T03:26:26.774Z,0
2017-04-17T03:27:36.887Z,0
2017-04-17T03:28:46.697Z,0
2017-04-17T03:29:56.095Z,0
2017-04-17T03:31:06.218Z,0
2017-04-17T03:32:16.316Z,0
2017-04-17T03:33:26.368Z,0
2017-04-17T03:34:36.498Z,0
2017-04-17T03:35:46.575Z,0
2017-04-17T03:36:56.643Z,0
2017-04-17T03:38:06.385Z,0
2017-04-17T03:39:17.388Z,0
2017-04-17T03:40:27.335Z,0
2017-04-17T03:41:36.995Z,4
2017-04-17T03:42:46.809Z,4
2017-04-17T03:43:56.867Z,4
2017-04-17T03:45:07.231Z,0
2017-04-17T03:46:17.395Z,4
2017-04-17T03:47:27.235Z,0
2017-04-17T03:48:37.305Z,4
2017-04-17T03:49:47.381Z,4
2017-04-17T03:50:57.422Z,8
2017-04-17T03:52:07.163Z,12
2017-04-17T03:53:17.288Z,8
2017-04-17T03:54:27.034Z,12
2017-04-17T03:55:37.133Z,12
2017-04-17T03:56:47.519Z,16
2017-04-17T03:57:57.243Z,16
2017-04-17T03:59:07.308Z,16
2017-04-17T04:00:17.605Z,16
2017-04-17T04:01:27.356Z,24
2017-04-17T04:02:37.413Z,28
2017-04-17T04:03:47.537Z,24
2017-04-17T04:04:57.326Z,24
2017-04-17T04:06:07.080Z,32
2017-04-17T04:07:17.175Z,36
2017-04-17T04:08:27.210Z,52
2017-04-17T04:09:36.615Z,68
2017-04-17T04:10:46.688Z,76
2017-04-17T04:11:56.468Z,96
2017-04-17T04:13:06.439Z,112
2017-04-17T04:14:16.948Z,124
2017-04-17T04:15:27.017Z,132
2017-04-17T04:16:37.105Z,148
2017-04-17T04:17:46.843Z,172
2017-04-17T04:18:56.931Z,200
2017-04-17T04:20:06.667Z,236
2017-04-17T04:21:16.391Z,276
2017-04-17T04:22:26.152Z,316
2017-04-17T04:23:36.353Z,356
2017-04-17T04:24:46.100Z,384
2017-04-17T04:25:55.802Z,420
2017-04-17T04:27:05.263Z,464
2017-04-17T04:28:15.321Z,504
2017-04-17T04:29:25.388Z,532
2017-04-17T04:30:34.791Z,540
2017-04-17T04:31:44.832Z,576
2017-04-17T04:32:54.701Z,620
2017-04-17T04:34:04.830Z,676
2017-04-17T04:35:14.642Z,712
2017-04-17T04:36:24.775Z,736
2017-04-17T04:37:34.473Z,748
2017-04-17T04:38:43.890Z,776
2017-04-17T04:39:53.977Z,848
2017-04-17T04:41:04.060Z,868
2017-04-17T04:42:13.809Z,872
2017-04-17T04:43:23.838Z,936
2017-04-17T04:44:33.958Z,1032
2017-04-17T04:45:43.796Z,1112
2017-04-17T04:46:53.855Z,1132
2017-04-17T04:48:03.617Z,1184
2017-04-17T04:49:14.259Z,1220
2017-04-17T04:50:24.318Z,1308
2017-04-17T04:51:33.397Z,1424
2017-04-17T04:52:43.497Z,1496
2017-04-17T04:53:53.632Z,1520
2017-04-17T04:55:04.069Z,1576
2017-04-17T04:56:13.802Z,1696
2017-04-17T04:57:23.631Z,1796
2017-04-17T04:58:33.705Z,1928
2017-04-17T04:59:43.489Z,1904
2017-04-17T05:00:53.605Z,1888
2017-04-17T05:02:03.015Z,1940
2017-04-17T05:03:12.772Z,1988
2017-04-17T05:04:22.568Z,2080
2017-04-17T05:05:32.380Z,2188
2017-04-17T05:06:42.771Z,2200
2017-04-17T05:07:52.217Z,2228
2017-04-17T05:09:02.293Z,2364
2017-04-17T05:10:12.019Z,2520
2017-04-17T05:11:22.142Z,2604
2017-04-17T05:12:32.524Z,2724
2017-04-17T05:13:42.639Z,2896
2017-04-17T05:14:52.868Z,3024
2017-04-17T05:16:03.088Z,3304
2017-04-17T05:17:12.968Z,3328
2017-04-17T05:18:23.028Z,3388
2017-04-17T05:19:33.102Z,3480
2017-04-17T05:20:43.198Z,3620
2017-04-17T05:21:53.388Z,3660
2017-04-17T05:23:03.127Z,3744
2017-04-17T05:24:13.556Z,3632
2017-04-17T05:25:23.704Z,3460
2017-04-17T05:26:33.814Z,3352
2017-04-17T05:27:43.948Z,3312
2017-04-17T05:28:53.445Z,3308
2017-04-17T05:30:03.561Z,3324
2017-04-17T05:31:13.664Z,3388
2017-04-17T05:32:23.772Z,3444
2017-04-17T05:33:33.915Z,3420
2017-04-17T05:34:43.990Z,3428
2017-04-17T05:35:54.030Z,3528
2017-04-17T05:37:03.433Z,3784
2017-04-17T05:38:12.832Z,4028
2017-04-17T05:39:22.611Z,4240
2017-04-17T05:40:31.679Z,5204
2017-04-17T05:41:41.732Z,4848
2017-04-17T05:42:51.938Z,4044
2017-04-17T05:44:01.689Z,3816
2017-04-17T05:45:11.828Z,3864
2017-04-17T05:46:21.928Z,4008
2017-04-17T05:47:32.309Z,4532
2017-04-17T05:48:42.537Z,4272
2017-04-17T05:49:52.697Z,4784
2017-04-17T05:51:02.844Z,4744
2017-04-17T05:52:12.911Z,4528
2017-04-17T05:53:22.960Z,4564
2017-04-17T05:54:32.366Z,4404
2017-04-17T05:55:42.465Z,4620
2017-04-17T05:56:52.541Z,5236
2017-04-17T05:58:02.606Z,5392
2017-04-17T05:59:12.980Z,5552
2017-04-17T06:00:22.732Z,6508
2017-04-17T06:01:32.812Z,7664
2017-04-17T06:02:42.980Z,8440
2017-04-17T06:03:52.796Z,8604
2017-04-17T06:05:03.298Z,9024
2017-04-17T06:06:13.356Z,9284
2017-04-17T06:07:23.423Z,8816
2017-04-17T06:08:33.202Z,8192
2017-04-17T06:09:43.386Z,7620
2017-04-17T06:10:52.797Z,7436
2017-04-17T06:12:02.560Z,7896
2017-04-17T06:13:12.635Z,8600
2017-04-17T06:14:22.054Z,8952
2017-04-17T06:15:32.170Z,9336
2017-04-17T06:16:42.545Z,8992
2017-04-17T06:17:52.283Z,8432
2017-04-17T06:19:01.739Z,8068
2017-04-17T06:20:11.531Z,8292
2017-04-17T06:21:21.281Z,8644
2017-04-17T06:22:31.318Z,8840
2017-04-17T06:23:41.378Z,8816
2017-04-17T06:24:51.615Z,8292
2017-04-17T06:26:01.425Z,7804
2017-04-17T06:27:11.161Z,7516
2017-04-17T06:28:21.222Z,7744
2017-04-17T06:29:30.960Z,8048
2017-04-17T06:30:40.755Z,8532
2017-04-17T06:31:50.995Z,9056
2017-04-17T06:33:01.093Z,9700
2017-04-17T06:34:11.179Z,10332
2017-04-17T06:35:21.356Z,10604
2017-04-17T06:36:31.138Z,10840
2017-04-17T06:37:40.563Z,10880
2017-04-17T06:38:50.734Z,10904
2017-04-17T06:40:01.298Z,11296
2017-04-17T06:41:11.487Z,11568
2017-04-17T06:42:21.588Z,11108
2017-04-17T06:43:30.996Z,11864
2017-04-17T06:44:41.236Z,11784
2017-04-17T06:45:51.290Z,11492
2017-04-17T06:47:01.030Z,11312
2017-04-17T06:48:11.100Z,10508
2017-04-17T06:49:20.547Z,9468
2017-04-17T06:50:30.615Z,8592
2017-04-17T06:51:41.138Z,8336
2017-04-17T06:52:51.229Z,8804
2017-04-17T06:54:01.342Z,9468
2017-04-17T06:55:11.708Z,9784
2017-04-17T06:56:21.523Z,10380
2017-04-17T06:57:31.579Z,11220
2017-04-17T06:58:41.652Z,11520
2017-04-17T06:59:51.762Z,11388
2017-04-17T07:01:01.506Z,11184
2017-04-17T07:02:11.595Z,10684
2017-04-17T07:03:21.970Z,10088
2017-04-17T07:04:32.092Z,9708
2017-04-17T07:05:42.234Z,9124
2017-04-17T07:06:52.374Z,8392
2017-04-17T07:08:02.496Z,8164
2017-04-17T07:09:12.875Z,8164
2017-04-17T07:10:22.956Z,7804
2017-04-17T07:11:33.080Z,7368
2017-04-17T07:12:43.200Z,7248
2017-04-17T07:13:53.409Z,7336
2017-04-17T07:15:03.936Z,7452
2017-04-17T07:16:14.101Z,7836
2017-04-17T07:17:24.457Z,8228
2017-04-17T07:18:34.525Z,8720
2017-04-17T07:19:44.627Z,9372
2017-04-17T07:20:54.995Z,9240
2017-04-17T07:22:04.466Z,8736
2017-04-17T07:23:14.206Z,8444
2017-04-17T07:24:24.067Z,8440
2017-04-17T07:25:34.201Z,8464
2017-04-17T07:26:44.299Z,8612
2017-04-17T07:27:54.066Z,9232
2017-04-17T07:29:04.133Z,10132
2017-04-17T07:30:14.239Z,11116
2017-04-17T07:31:24.398Z,11912
2017-04-17T07:32:34.834Z,12624
2017-04-17T07:33:44.572Z,13024
2017-04-17T07:34:54.370Z,13224
2017-04-17T07:36:04.458Z,13460
2017-04-17T07:37:14.593Z,13500
2017-04-17T07:38:25.010Z,13412
2017-04-17T07:39:35.093Z,13724
2017-04-17T07:40:44.908Z,14116
2017-04-17T07:41:54.993Z,15244
2017-04-17T07:43:05.101Z,16288
2017-04-17T07:44:15.528Z,16928
2017-04-17T07:45:25.282Z,17216
2017-04-17T07:46:35.031Z,16960
2017-04-17T07:47:44.790Z,16512
2017-04-17T07:48:54.880Z,16096
2017-04-17T07:50:04.923Z,15096
2017-04-17T07:51:14.807Z,14796
2017-04-17T07:52:24.548Z,14960
2017-04-17T07:53:34.718Z,14768
2017-04-17T07:54:44.802Z,14440
2017-04-17T07:55:55.209Z,14272
2017-04-17T07:57:04.966Z,13336
2017-04-17T07:58:15.086Z,12156
2017-04-17T07:59:25.235Z,10692
2017-04-17T08:00:35.120Z,9504
2017-04-17T08:01:45.499Z,9080
2017-04-17T08:02:55.582Z,9120
2017-04-17T08:04:05.661Z,9068
2017-04-17T08:05:15.412Z,9548
2017-04-17T08:06:25.553Z,10364
2017-04-17T08:07:36.039Z,11224
2017-04-17T08:08:46.122Z,11800
2017-04-17T08:09:56.252Z,11472
2017-04-17T08:11:06.013Z,10684
2017-04-17T08:12:15.757Z,9532
2017-04-17T08:13:26.167Z,8884
2017-04-17T08:14:35.966Z,8080
2017-04-17T08:15:46.088Z,8156
2017-04-17T08:16:56.260Z,8692
2017-04-17T08:18:06.006Z,9088
2017-04-17T08:19:16.094Z,9508
2017-04-17T08:20:26.178Z,10324
2017-04-17T08:21:36.364Z,11224
2017-04-17T08:22:46.135Z,12280
2017-04-17T08:23:55.955Z,13256
2017-04-17T08:25:06.093Z,14104
2017-04-17T08:26:16.205Z,14492
2017-04-17T08:27:26.182Z,14852
2017-04-17T08:28:36.276Z,14980
2017-04-17T08:29:46.593Z,14832
2017-04-17T08:30:57.256Z,16064
2017-04-17T08:32:08.920Z,16480
2017-04-17T08:33:20.255Z,17664
2017-04-17T08:34:30.673Z,20320
2017-04-17T08:35:41.379Z,23680
2017-04-17T08:36:52.429Z,24640
2017-04-17T08:38:02.850Z,27520
2017-04-17T08:39:13.236Z,26656
2017-04-17T08:40:24.054Z,24800
2017-04-17T08:41:33.783Z,23136
2017-04-17T08:42:44.391Z,27488
2017-04-17T08:43:55.139Z,27392
2017-04-17T08:45:05.552Z,32928
2017-04-17T08:46:16.385Z,34080
2017-04-17T08:47:26.812Z,35712
2017-04-17T08:48:37.546Z,40928
2017-04-17T08:49:47.986Z,39808
2017-04-17T08:50:58.693Z,50144
2017-04-17T08:52:10.405Z,64416
2017-04-17T08:53:21.307Z,31296
2017-04-17T08:54:32.320Z,74144
2017-04-17T08:55:42.757Z,66336
2017-04-17T08:56:53.936Z,72544
2017-04-17T08:58:04.833Z,84096
2017-04-17T08:59:14.945Z,77376
2017-04-17T09:00:25.648Z,62528
2017-04-17T09:01:36.372Z,52448
2017-04-17T09:02:46.764Z,16512
2017-04-17T09:03:58.508Z,14464
2017-04-17T09:05:09.276Z,13232
2017-04-17T09:06:19.944Z,13540
2017-04-17T09:07:30.410Z,14744
2017-04-17T09:08:41.157Z,36032
2017-04-17T09:09:51.923Z,13940
2017-04-17T09:11:02.314Z,14572
2017-04-17T09:12:13.066Z,15952
2017-04-17T09:13:23.650Z,18880
2017-04-17T09:14:34.506Z,51488
2017-04-17T09:15:44.920Z,35168
2017-04-17T09:16:55.694Z,43456
2017-04-17T09:18:06.371Z,45952
2017-04-17T09:19:16.807Z,28544
2017-04-17T09:20:27.572Z,26208
2017-04-17T09:21:37.573Z,60800
2017-04-17T09:22:48.040Z,66144
2017-04-17T09:23:58.811Z,91328
2017-04-17T09:25:09.636Z,88768
2017-04-17T09:26:20.427Z,92480
2017-04-17T09:27:30.822Z,21824
2017-04-17T09:28:40.888Z,18496
2017-04-17T09:29:52.752Z,70528
2017-04-17T09:31:03.122Z,74912
2017-04-17T09:32:13.895Z,94240
2017-04-17T09:33:24.480Z,120960
2017-04-17T09:34:34.909Z,116032
2017-04-17T09:35:45.587Z,89504
2017-04-17T09:36:55.989Z,83232
2017-04-17T09:38:06.363Z,117248
2017-04-17T09:39:17.087Z,95264
2017-04-17T09:40:27.844Z,71776
2017-04-17T09:41:38.654Z,110784
2017-04-17T09:42:49.522Z,112480
2017-04-17T09:44:00.237Z,119456
2017-04-17T09:45:10.977Z,71680
2017-04-17T09:46:21.754Z,102848
2017-04-17T09:47:31.786Z,127552
2017-04-17T09:48:41.846Z,107360
2017-04-17T09:49:52.603Z,101280
2017-04-17T09:51:02.647Z,18304
2017-04-17T09:52:13.623Z,19136
2017-04-17T09:53:24.641Z,19424
2017-04-17T09:54:35.394Z,78144
2017-04-17T09:55:45.839Z,108448
2017-04-17T09:56:56.349Z,119616
2017-04-17T09:58:06.465Z,94944
2017-04-17T09:59:17.206Z,125792
2017-04-17T10:00:27.682Z,23232
2017-04-17T10:01:39.642Z,20448
2017-04-17T10:02:50.009Z,19968
2017-04-17T10:04:00.732Z,16640
2017-04-17T10:05:12.772Z,106208
2017-04-17T10:06:23.530Z,128832
2017-04-17T10:07:34.903Z,86240
2017-04-17T10:08:45.227Z,93536
2017-04-17T10:09:55.748Z,91104
2017-04-17T10:11:06.627Z,89440
2017-04-17T10:12:17.418Z,114752
2017-04-17T10:13:28.171Z,136640
2017-04-17T10:14:38.370Z,120800
2017-04-17T10:15:50.037Z,103584
2017-04-17T10:17:00.731Z,111616
2017-04-17T10:18:11.323Z,105632
2017-04-17T10:19:21.822Z,106464
2017-04-17T10:20:31.942Z,126528
2017-04-17T10:21:42.862Z,128800
2017-04-17T10:22:54.063Z,118976
2017-04-17T10:24:04.470Z,121760
2017-04-17T10:25:15.247Z,134816
2017-04-17T10:26:26.093Z,145696
2017-04-17T10:27:36.916Z,124224
2017-04-17T10:28:48.278Z,114400
2017-04-17T10:29:59.021Z,100128
2017-04-17T10:31:09.793Z,89376
2017-04-17T10:32:20.213Z,130272
2017-04-17T10:33:30.946Z,65824
2017-04-17T10:34:42.537Z,50496
2017-04-17T10:35:53.089Z,24256
2017-04-17T10:37:03.832Z,131808
2017-04-17T10:38:14.003Z,49600
2017-04-17T10:39:24.258Z,101408
2017-04-17T10:40:35.397Z,143296
2017-04-17T10:41:45.888Z,139552
2017-04-17T10:42:56.784Z,101664
2017-04-17T10:44:07.559Z,90336
2017-04-17T10:45:18.292Z,100128
2017-04-17T10:46:29.331Z,89184
2017-04-17T10:47:40.117Z,84000
2017-04-17T10:48:51.007Z,81408
2017-04-17T10:50:01.779Z,148608
2017-04-17T10:51:12.183Z,129312
2017-04-17T10:52:23.213Z,93632
2017-04-17T10:53:34.008Z,134592
2017-04-17T10:54:45.708Z,89920
2017-04-17T10:55:56.444Z,69632
2017-04-17T10:57:07.268Z,23904
2017-04-17T10:58:18.081Z,17280
2017-04-17T10:59:28.735Z,15808
2017-04-17T11:00:39.277Z,15840
2017-04-17T11:01:49.695Z,16704
2017-04-17T11:03:00.428Z,17440
2017-04-17T11:04:11.483Z,17472
2017-04-17T11:05:22.218Z,17184
2017-04-17T11:06:32.303Z,17408
2017-04-17T11:07:42.408Z,15616
2017-04-17T11:08:52.488Z,12684
2017-04-17T11:10:03.614Z,10580
2017-04-17T11:11:14.343Z,9704
2017-04-17T11:12:25.130Z,9292
2017-04-17T11:13:35.608Z,9228
2017-04-17T11:14:46.042Z,10296
2017-04-17T11:15:57.080Z,26816
2017-04-17T11:17:07.163Z,60512
2017-04-17T11:18:17.554Z,108672
2017-04-17T11:19:28.340Z,102624
2017-04-17T11:20:38.748Z,100480
2017-04-17T11:21:49.830Z,132768
2017-04-17T11:23:00.625Z,133952
2017-04-17T11:24:11.113Z,68256
2017-04-17T11:25:21.889Z,47968
2017-04-17T11:26:32.680Z,87136
2017-04-17T11:27:43.812Z,90240
2017-04-17T11:28:54.706Z,67680
2017-04-17T11:30:05.483Z,94784
2017-04-17T11:31:16.228Z,128032
2017-04-17T11:32:26.995Z,120096
2017-04-17T11:33:38.135Z,95968
2017-04-17T11:34:48.544Z,78688
2017-04-17T11:35:59.325Z,74624
2017-04-17T11:37:10.120Z,93024
2017-04-17T11:38:20.301Z,125856
2017-04-17T11:39:31.094Z,34912
2017-04-17T11:40:41.478Z,32768
2017-04-17T11:41:51.897Z,108096
2017-04-17T11:43:02.772Z,102688
2017-04-17T11:44:13.598Z,101120
2017-04-17T11:45:24.301Z,111648
2017-04-17T11:46:35.053Z,107040
2017-04-17T11:47:45.985Z,90784
2017-04-17T11:48:56.388Z,93792
2017-04-17T11:50:06.850Z,132768
2017-04-17T11:51:17.961Z,142208
2017-04-17T11:52:28.751Z,108672
2017-04-17T11:53:40.230Z,111136
2017-04-17T11:54:51.092Z,119168
2017-04-17T11:56:01.819Z,89344
2017-04-17T11:57:12.908Z,80288
2017-04-17T11:58:23.478Z,97184
2017-04-17T11:59:35.248Z,146368
2017-04-17T12:00:46.099Z,118368
2017-04-17T12:01:58.107Z,118560
2017-04-17T12:03:08.876Z,101344
2017-04-17T12:04:19.439Z,72480
2017-04-17T12:05:29.860Z,78688
2017-04-17T12:06:41.553Z,126720
2017-04-17T12:07:52.352Z,34624
2017-04-17T12:09:03.579Z,41056
2017-04-17T12:10:14.336Z,24672
2017-04-17T12:11:25.216Z,24352
2017-04-17T12:12:35.667Z,33184
2017-04-17T12:13:46.484Z,24128
2017-04-17T12:14:58.478Z,30048
2017-04-17T12:16:09.032Z,19392
2017-04-17T12:17:19.809Z,17888
2017-04-17T12:18:30.557Z,85024
2017-04-17T12:19:41.029Z,113632
2017-04-17T12:20:52.231Z,136288
2017-04-17T12:22:02.632Z,86592
2017-04-17T12:23:13.516Z,62624
2017-04-17T12:24:25.203Z,127552
2017-04-17T12:25:36.000Z,161920
2017-04-17T12:26:46.707Z,118496
2017-04-17T12:27:57.469Z,88864
2017-04-17T12:29:09.475Z,113696
2017-04-17T12:30:19.979Z,131104
2017-04-17T12:31:30.457Z,99808
2017-04-17T12:32:41.498Z,55040
2017-04-17T12:33:53.177Z,71392
2017-04-17T12:35:04.028Z,115200
2017-04-17T12:36:14.759Z,126400
2017-04-17T12:37:25.198Z,118496
2017-04-17T12:38:36.222Z,122400
2017-04-17T12:39:47.066Z,131840
2017-04-17T12:40:58.882Z,25376
2017-04-17T12:42:09.707Z,26304
2017-04-17T12:43:20.501Z,89280
2017-04-17T12:44:31.532Z,120832
2017-04-17T12:45:42.340Z,132704
2017-04-17T12:46:53.145Z,23616
2017-04-17T12:48:03.902Z,19680
2017-04-17T12:49:14.649Z,18048
2017-04-17T12:50:25.695Z,15580
2017-04-17T12:51:37.597Z,15196
2017-04-17T12:52:48.076Z,37312
2017-04-17T12:53:58.138Z,97184
2017-04-17T12:55:08.579Z,76768
2017-04-17T12:56:19.276Z,96448
2017-04-17T12:57:29.817Z,117472
2017-04-17T12:58:40.623Z,103008
2017-04-17T12:59:52.432Z,86016
2017-04-17T13:01:02.957Z,27872
2017-04-17T13:02:14.011Z,14644
2017-04-17T13:03:24.152Z,19104
2017-04-17T13:04:34.976Z,118464
2017-04-17T13:05:45.427Z,117792
2017-04-17T13:06:56.218Z,88096
2017-04-17T13:08:06.885Z,78592
2017-04-17T13:09:18.620Z,89760
2017-04-17T13:10:29.611Z,83648
2017-04-17T13:11:40.397Z,71808
2017-04-17T13:12:50.938Z,78912
2017-04-17T13:14:01.337Z,86432
2017-04-17T13:15:12.115Z,99488
2017-04-17T13:16:23.055Z,19584
2017-04-17T13:17:33.818Z,21344
2017-04-17T13:18:44.573Z,16672
2017-04-17T13:19:55.696Z,14352
2017-04-17T13:21:06.495Z,17312
2017-04-17T13:22:17.344Z,23072
2017-04-17T13:23:28.078Z,48192
2017-04-17T13:24:39.442Z,40768
2017-04-17T13:25:50.505Z,85472
2017-04-17T13:27:00.631Z,60672
2017-04-17T13:28:12.224Z,99520
2017-04-17T13:29:22.447Z,103936
2017-04-17T13:30:33.248Z,60000
2017-04-17T13:31:44.344Z,38720
2017-04-17T13:32:55.168Z,87904
2017-04-17T13:34:05.992Z,79296
2017-04-17T13:35:16.372Z,93536
2017-04-17T13:36:27.151Z,94144
2017-04-17T13:37:38.206Z,18848
2017-04-17T13:38:48.950Z,21344
2017-04-17T13:39:59.020Z,70912
2017-04-17T13:41:09.125Z,79520
2017-04-17T13:42:19.682Z,102528
2017-04-17T13:43:30.726Z,96928
2017-04-17T13:44:41.180Z,87168
2017-04-17T13:45:52.009Z,94464
2017-04-17T13:47:02.416Z,91488
2017-04-17T13:48:13.150Z,78016
2017-04-17T13:49:24.226Z,64416
2017-04-17T13:50:34.717Z,57024
2017-04-17T13:51:45.448Z,8688
2017-04-17T13:52:56.238Z,7544
2017-04-17T13:54:07.113Z,7248
2017-04-17T13:55:18.185Z,6772
2017-04-17T13:56:28.964Z,6356
2017-04-17T13:57:39.180Z,6356
2017-04-17T13:58:50.040Z,6452
2017-04-17T14:00:00.188Z,6120
2017-04-17T14:01:11.064Z,5304
2017-04-17T14:02:21.838Z,4488
2017-04-17T14:03:33.637Z,3728
2017-04-17T14:04:44.504Z,3048
2017-04-17T14:05:54.915Z,2472
2017-04-17T14:07:05.325Z,1964
2017-04-17T14:08:17.006Z,1580
2017-04-17T14:09:27.851Z,1320
2017-04-17T14:10:38.815Z,1156
2017-04-17T14:11:49.643Z,1084
2017-04-17T14:13:00.330Z,1080
2017-04-17T14:14:10.429Z,1100
2017-04-17T14:15:20.536Z,1180
2017-04-17T14:16:30.298Z,1244
2017-04-17T14:17:40.535Z,1276
2017-04-17T14:18:50.613Z,1356
2017-04-17T14:20:00.803Z,1376
2017-04-17T14:21:10.615Z,1448
2017-04-17T14:22:20.749Z,1584
2017-04-17T14:23:30.808Z,1356
2017-04-17T14:24:41.239Z,1312
2017-04-17T14:25:51.473Z,1328
2017-04-17T14:27:01.575Z,1332
2017-04-17T14:28:11.802Z,1388
2017-04-17T14:29:21.568Z,1532
2017-04-17T14:30:31.573Z,1980
2017-04-17T14:31:41.345Z,2504
2017-04-17T14:32:51.245Z,2572
2017-04-17T14:34:01.481Z,2460
2017-04-17T14:35:11.721Z,2676
2017-04-17T14:36:22.155Z,3136
2017-04-17T14:37:32.293Z,3712
2017-04-17T14:38:42.187Z,4236
2017-04-17T14:39:51.944Z,4652
2017-04-17T14:41:02.023Z,4748
2017-04-17T14:42:12.121Z,4692
2017-04-17T14:43:22.210Z,4216
2017-04-17T14:44:32.301Z,3536
2017-04-17T14:45:42.390Z,3080
2017-04-17T14:46:52.490Z,2896
2017-04-17T14:48:02.981Z,2856
2017-04-17T14:49:13.153Z,3168
2017-04-17T14:50:22.951Z,3792
2017-04-17T14:51:32.698Z,4908
2017-04-17T14:52:42.466Z,6224
2017-04-17T14:53:52.851Z,9784
2017-04-17T14:55:02.961Z,17824
2017-04-17T14:56:12.726Z,27456
2017-04-17T14:57:22.841Z,24480
2017-04-17T14:58:33.050Z,27328
2017-04-17T14:59:43.454Z,25344
2017-04-17T15:00:53.245Z,16320
2017-04-17T15:02:03.336Z,13652
2017-04-17T15:03:13.586Z,13596
2017-04-17T15:04:23.740Z,13360
2017-04-17T15:05:33.820Z,13356
2017-04-17T15:06:43.285Z,13424
2017-04-17T15:07:53.534Z,13108
2017-04-17T15:09:03.675Z,12320
2017-04-17T15:10:13.784Z,11344
2017-04-17T15:11:23.728Z,10228
2017-04-17T15:12:33.568Z,9088
2017-04-17T15:13:43.662Z,8284
2017-04-17T15:14:53.421Z,7880
2017-04-17T15:16:03.835Z,7904
2017-04-17T15:17:13.988Z,7640
2017-04-17T15:18:23.952Z,7996
2017-04-17T15:19:34.111Z,9036
2017-04-17T15:20:44.213Z,34688
2017-04-17T15:21:54.372Z,34208
2017-04-17T15:23:04.545Z,63552
2017-04-17T15:24:14.755Z,64576
2017-04-17T15:25:24.591Z,59776
2017-04-17T15:26:34.718Z,46656
2017-04-17T15:27:45.126Z,27136
2017-04-17T15:28:55.211Z,55840
2017-04-17T15:30:05.023Z,50144
2017-04-17T15:31:14.826Z,54368
2017-04-17T15:32:24.800Z,59104
2017-04-17T15:33:35.147Z,49664
2017-04-17T15:34:45.296Z,49088
2017-04-17T15:35:55.071Z,45248
2017-04-17T15:37:04.827Z,44736
2017-04-17T15:38:14.957Z,44768
2017-04-17T15:39:25.464Z,38880
2017-04-17T15:40:35.664Z,42976
2017-04-17T15:41:45.438Z,32128
2017-04-17T15:42:55.544Z,15264
2017-04-17T15:44:05.720Z,11428